sensor_id;sensor_type;location;lat;lon;timestamp;P1;durP1;ratioP1;P2;durP2;ratioP2
20832;SDS011;56075;51.264;7.150;2023-03-11T00:01:37;6.20;;;2.57;;
20832;SDS011;56075;51.264;7.150;2023-03-11T00:04:10;5.20;;;2.70;;
20832;SDS011;56075;51.264;7.150;2023-03-11T00:06:42;6.37;;;3.33;;
20832;SDS011;56075;51.264;7.150;2023-03-11T00:09:14;6.20;;;2.80;;
20832;SDS011;56075;51.264;7.150;2023-03-11T00:11:46;4.53;;;2.77;;
20832;SDS011;56075;51.264;7.150;2023-03-11T00:14:17;5.10;;;2.80;;
20832;SDS011;56075;51.264;7.150;2023-03-11T00:16:49;10.50;;;3.50;;
20832;SDS011;56075;51.264;7.150;2023-03-11T00:19:20;5.70;;;3.10;;
20832;SDS011;56075;51.264;7.150;2023-03-11T00:21:52;7.60;;;3.27;;
20832;SDS011;56075;51.264;7.150;2023-03-11T00:24:24;6.83;;;3.37;;
20832;SDS011;56075;51.264;7.150;2023-03-11T00:26:56;9.43;;;4.27;;
20832;SDS011;56075;51.264;7.150;2023-03-11T00:29:28;8.13;;;3.53;;
20832;SDS011;56075;51.264;7.150;2023-03-11T00:31:59;7.47;;;3.90;;
20832;SDS011;56075;51.264;7.150;2023-03-11T00:34:31;9.87;;;4.13;;
20832;SDS011;56075;51.264;7.150;2023-03-11T00:37:04;7.30;;;3.90;;
20832;SDS011;56075;51.264;7.150;2023-03-11T00:39:35;7.43;;;3.70;;
20832;SDS011;56075;51.264;7.150;2023-03-11T00:42:07;8.70;;;4.20;;
20832;SDS011;56075;51.264;7.150;2023-03-11T00:44:38;9.60;;;3.40;;
20832;SDS011;56075;51.264;7.150;2023-03-11T00:47:10;9.97;;;4.30;;
20832;SDS011;56075;51.264;7.150;2023-03-11T00:49:41;7.67;;;4.40;;
20832;SDS011;56075;51.264;7.150;2023-03-11T00:52:13;7.27;;;4.00;;
20832;SDS011;56075;51.264;7.150;2023-03-11T00:54:44;12.63;;;4.37;;
20832;SDS011;56075;51.264;7.150;2023-03-11T00:57:17;7.13;;;4.00;;
20832;SDS011;56075;51.264;7.150;2023-03-11T00:59:48;13.00;;;4.20;;
20832;SDS011;56075;51.264;7.150;2023-03-11T01:02:20;8.70;;;4.37;;
20832;SDS011;56075;51.264;7.150;2023-03-11T01:04:53;8.10;;;3.70;;
20832;SDS011;56075;51.264;7.150;2023-03-11T01:07:25;9.70;;;3.90;;
20832;SDS011;56075;51.264;7.150;2023-03-11T01:09:56;9.53;;;4.00;;
20832;SDS011;56075;51.264;7.150;2023-03-11T01:12:28;10.13;;;3.60;;
20832;SDS011;56075;51.264;7.150;2023-03-11T01:14:59;7.53;;;3.80;;
20832;SDS011;56075;51.264;7.150;2023-03-11T01:17:31;9.83;;;4.27;;
20832;SDS011;56075;51.264;7.150;2023-03-11T01:20:02;7.97;;;4.13;;
20832;SDS011;56075;51.264;7.150;2023-03-11T01:22:35;10.00;;;3.70;;
20832;SDS011;56075;51.264;7.150;2023-03-11T01:25:09;12.37;;;4.20;;
20832;SDS011;56075;51.264;7.150;2023-03-11T01:27:41;8.83;;;3.43;;
20832;SDS011;56075;51.264;7.150;2023-03-11T01:30:14;8.53;;;3.70;;
20832;SDS011;56075;51.264;7.150;2023-03-11T01:32:46;9.13;;;4.00;;
20832;SDS011;56075;51.264;7.150;2023-03-11T01:35:19;10.20;;;3.87;;
20832;SDS011;56075;51.264;7.150;2023-03-11T01:37:51;10.73;;;4.30;;
20832;SDS011;56075;51.264;7.150;2023-03-11T01:40:34;13.10;;;4.40;;
20832;SDS011;56075;51.264;7.150;2023-03-11T01:48:55;7.33;;;3.67;;
20832;SDS011;56075;51.264;7.150;2023-03-11T01:51:29;7.67;;;3.70;;
20832;SDS011;56075;51.264;7.150;2023-03-11T01:54:24;10.30;;;4.07;;
20832;SDS011;56075;51.264;7.150;2023-03-11T01:56:54;8.20;;;4.10;;
20832;SDS011;56075;51.264;7.150;2023-03-11T01:59:28;12.23;;;3.90;;
20832;SDS011;56075;51.264;7.150;2023-03-11T02:04:52;14.03;;;4.23;;
20832;SDS011;56075;51.264;7.150;2023-03-11T02:07:27;11.30;;;3.93;;
20832;SDS011;56075;51.264;7.150;2023-03-11T02:10:00;10.77;;;4.13;;
20832;SDS011;56075;51.264;7.150;2023-03-11T02:12:34;12.47;;;3.90;;
20832;SDS011;56075;51.264;7.150;2023-03-11T02:15:06;9.33;;;3.80;;
20832;SDS011;56075;51.264;7.150;2023-03-11T02:17:40;6.77;;;3.73;;
20832;SDS011;56075;51.264;7.150;2023-03-11T02:22:49;9.53;;;3.77;;
20832;SDS011;56075;51.264;7.150;2023-03-11T02:27:59;15.47;;;3.53;;
20832;SDS011;56075;51.264;7.150;2023-03-11T02:30:32;10.17;;;3.30;;
20832;SDS011;56075;51.264;7.150;2023-03-11T02:33:04;10.63;;;3.40;;
20832;SDS011;56075;51.264;7.150;2023-03-11T02:35:36;12.83;;;3.43;;
20832;SDS011;56075;51.264;7.150;2023-03-11T02:38:08;8.53;;;2.50;;
20832;SDS011;56075;51.264;7.150;2023-03-11T02:40:50;11.50;;;2.30;;
20832;SDS011;56075;51.264;7.150;2023-03-11T02:43:27;10.80;;;1.97;;
20832;SDS011;56075;51.264;7.150;2023-03-11T02:46:01;5.40;;;1.80;;
20832;SDS011;56075;51.264;7.150;2023-03-11T02:48:33;9.30;;;1.83;;
20832;SDS011;56075;51.264;7.150;2023-03-11T02:51:06;10.70;;;2.57;;
20832;SDS011;56075;51.264;7.150;2023-03-11T02:53:39;10.57;;;2.70;;
20832;SDS011;56075;51.264;7.150;2023-03-11T02:56:12;7.70;;;2.60;;
20832;SDS011;56075;51.264;7.150;2023-03-11T02:58:44;10.07;;;2.70;;
20832;SDS011;56075;51.264;7.150;2023-03-11T03:01:15;12.50;;;2.83;;
20832;SDS011;56075;51.264;7.150;2023-03-11T03:03:49;6.00;;;2.60;;
20832;SDS011;56075;51.264;7.150;2023-03-11T03:06:21;8.50;;;2.50;;
20832;SDS011;56075;51.264;7.150;2023-03-11T03:08:54;9.93;;;1.90;;
20832;SDS011;56075;51.264;7.150;2023-03-11T03:11:26;8.53;;;1.90;;
20832;SDS011;56075;51.264;7.150;2023-03-11T03:13:58;7.47;;;2.07;;
20832;SDS011;56075;51.264;7.150;2023-03-11T03:16:29;5.40;;;1.80;;
20832;SDS011;56075;51.264;7.150;2023-03-11T03:19:01;11.03;;;2.10;;
20832;SDS011;56075;51.264;7.150;2023-03-11T03:21:32;11.00;;;1.90;;
20832;SDS011;56075;51.264;7.150;2023-03-11T03:24:04;10.40;;;1.93;;
20832;SDS011;56075;51.264;7.150;2023-03-11T03:26:36;6.53;;;1.73;;
20832;SDS011;56075;51.264;7.150;2023-03-11T03:29:10;3.60;;;1.50;;
20832;SDS011;56075;51.264;7.150;2023-03-11T03:31:41;7.83;;;1.73;;
20832;SDS011;56075;51.264;7.150;2023-03-11T03:34:13;9.17;;;1.60;;
20832;SDS011;56075;51.264;7.150;2023-03-11T03:36:44;10.07;;;2.03;;
20832;SDS011;56075;51.264;7.150;2023-03-11T03:39:16;8.27;;;1.63;;
20832;SDS011;56075;51.264;7.150;2023-03-11T03:41:50;12.90;;;1.70;;
20832;SDS011;56075;51.264;7.150;2023-03-11T03:44:22;9.87;;;1.70;;
20832;SDS011;56075;51.264;7.150;2023-03-11T03:46:53;6.47;;;1.50;;
20832;SDS011;56075;51.264;7.150;2023-03-11T03:49:25;11.07;;;2.07;;
20832;SDS011;56075;51.264;7.150;2023-03-11T03:51:57;9.70;;;2.00;;
20832;SDS011;56075;51.264;7.150;2023-03-11T03:54:35;6.93;;;1.57;;
20832;SDS011;56075;51.264;7.150;2023-03-11T03:57:08;8.30;;;1.90;;
20832;SDS011;56075;51.264;7.150;2023-03-11T03:59:47;5.60;;;2.13;;
20832;SDS011;56075;51.264;7.150;2023-03-11T04:02:18;10.97;;;2.13;;
20832;SDS011;56075;51.264;7.150;2023-03-11T04:04:50;9.20;;;1.83;;
20832;SDS011;56075;51.264;7.150;2023-03-11T04:07:21;12.53;;;2.03;;
20832;SDS011;56075;51.264;7.150;2023-03-11T04:09:53;5.70;;;1.93;;
20832;SDS011;56075;51.264;7.150;2023-03-11T04:12:25;12.37;;;1.90;;
20832;SDS011;56075;51.264;7.150;2023-03-11T04:14:57;6.30;;;1.70;;
20832;SDS011;56075;51.264;7.150;2023-03-11T04:17:29;8.03;;;1.83;;
20832;SDS011;56075;51.264;7.150;2023-03-11T04:20:00;9.83;;;1.53;;
20832;SDS011;56075;51.264;7.150;2023-03-11T04:22:33;14.90;;;2.07;;
20832;SDS011;56075;51.264;7.150;2023-03-11T04:25:04;5.20;;;1.80;;
20832;SDS011;56075;51.264;7.150;2023-03-11T04:27:37;11.80;;;1.90;;
20832;SDS011;56075;51.264;7.150;2023-03-11T04:30:13;9.87;;;1.77;;
20832;SDS011;56075;51.264;7.150;2023-03-11T04:32:46;7.80;;;1.63;;
20832;SDS011;56075;51.264;7.150;2023-03-11T04:35:17;10.20;;;1.63;;
20832;SDS011;56075;51.264;7.150;2023-03-11T04:37:49;6.17;;;1.57;;
20832;SDS011;56075;51.264;7.150;2023-03-11T04:40:20;6.33;;;1.57;;
20832;SDS011;56075;51.264;7.150;2023-03-11T04:42:52;8.33;;;1.50;;
20832;SDS011;56075;51.264;7.150;2023-03-11T04:45:24;7.17;;;1.90;;
20832;SDS011;56075;51.264;7.150;2023-03-11T04:47:59;8.27;;;1.50;;
20832;SDS011;56075;51.264;7.150;2023-03-11T04:50:34;7.97;;;1.57;;
20832;SDS011;56075;51.264;7.150;2023-03-11T04:53:06;9.50;;;1.73;;
20832;SDS011;56075;51.264;7.150;2023-03-11T04:55:38;5.53;;;1.30;;
20832;SDS011;56075;51.264;7.150;2023-03-11T04:58:09;7.60;;;1.70;;
20832;SDS011;56075;51.264;7.150;2023-03-11T05:00:43;10.13;;;1.67;;
20832;SDS011;56075;51.264;7.150;2023-03-11T05:03:17;12.13;;;1.67;;
20832;SDS011;56075;51.264;7.150;2023-03-11T05:05:49;8.73;;;1.77;;
20832;SDS011;56075;51.264;7.150;2023-03-11T05:08:24;6.60;;;1.60;;
20832;SDS011;56075;51.264;7.150;2023-03-11T05:10:56;11.77;;;1.53;;
20832;SDS011;56075;51.264;7.150;2023-03-11T05:13:28;5.13;;;1.07;;
20832;SDS011;56075;51.264;7.150;2023-03-11T05:15:59;8.90;;;1.43;;
20832;SDS011;56075;51.264;7.150;2023-03-11T05:18:31;9.43;;;1.50;;
20832;SDS011;56075;51.264;7.150;2023-03-11T05:21:02;10.43;;;1.70;;
20832;SDS011;56075;51.264;7.150;2023-03-11T05:23:36;6.50;;;1.20;;
20832;SDS011;56075;51.264;7.150;2023-03-11T05:26:08;3.90;;;1.30;;
20832;SDS011;56075;51.264;7.150;2023-03-11T05:28:40;7.33;;;1.30;;
20832;SDS011;56075;51.264;7.150;2023-03-11T05:31:11;6.10;;;1.43;;
20832;SDS011;56075;51.264;7.150;2023-03-11T05:33:43;3.97;;;1.43;;
20832;SDS011;56075;51.264;7.150;2023-03-11T05:36:17;7.30;;;1.60;;
20832;SDS011;56075;51.264;7.150;2023-03-11T05:38:49;6.13;;;1.70;;
20832;SDS011;56075;51.264;7.150;2023-03-11T05:41:23;5.63;;;1.50;;
20832;SDS011;56075;51.264;7.150;2023-03-11T05:43:54;5.00;;;1.50;;
20832;SDS011;56075;51.264;7.150;2023-03-11T05:46:26;4.53;;;1.33;;
20832;SDS011;56075;51.264;7.150;2023-03-11T05:48:58;8.63;;;1.30;;
20832;SDS011;56075;51.264;7.150;2023-03-11T05:51:30;8.23;;;1.57;;
20832;SDS011;56075;51.264;7.150;2023-03-11T05:54:02;9.30;;;1.77;;
20832;SDS011;56075;51.264;7.150;2023-03-11T05:56:41;5.43;;;1.40;;
20832;SDS011;56075;51.264;7.150;2023-03-11T05:59:15;7.20;;;1.43;;
20832;SDS011;56075;51.264;7.150;2023-03-11T06:01:49;5.93;;;1.37;;
20832;SDS011;56075;51.264;7.150;2023-03-11T06:04:21;10.53;;;1.50;;
20832;SDS011;56075;51.264;7.150;2023-03-11T06:06:53;4.90;;;1.20;;
20832;SDS011;56075;51.264;7.150;2023-03-11T06:09:27;4.37;;;1.37;;
20832;SDS011;56075;51.264;7.150;2023-03-11T06:12:00;7.10;;;1.33;;
20832;SDS011;56075;51.264;7.150;2023-03-11T06:14:40;6.03;;;1.50;;
20832;SDS011;56075;51.264;7.150;2023-03-11T06:17:12;5.63;;;1.50;;
20832;SDS011;56075;51.264;7.150;2023-03-11T06:19:44;9.07;;;1.50;;
20832;SDS011;56075;51.264;7.150;2023-03-11T06:22:15;6.30;;;1.67;;
20832;SDS011;56075;51.264;7.150;2023-03-11T06:24:47;9.37;;;1.50;;
20832;SDS011;56075;51.264;7.150;2023-03-11T06:27:19;7.07;;;1.70;;
20832;SDS011;56075;51.264;7.150;2023-03-11T06:29:51;5.23;;;1.43;;
20832;SDS011;56075;51.264;7.150;2023-03-11T06:32:24;7.03;;;1.40;;
20832;SDS011;56075;51.264;7.150;2023-03-11T06:34:55;5.33;;;1.40;;
20832;SDS011;56075;51.264;7.150;2023-03-11T06:37:27;6.80;;;1.40;;
20832;SDS011;56075;51.264;7.150;2023-03-11T06:40:00;6.43;;;1.50;;
20832;SDS011;56075;51.264;7.150;2023-03-11T06:42:31;6.50;;;1.40;;
20832;SDS011;56075;51.264;7.150;2023-03-11T06:45:03;4.40;;;1.50;;
20832;SDS011;56075;51.264;7.150;2023-03-11T06:47:35;7.70;;;1.77;;
20832;SDS011;56075;51.264;7.150;2023-03-11T06:50:08;8.10;;;1.70;;
20832;SDS011;56075;51.264;7.150;2023-03-11T06:52:40;7.03;;;1.40;;
20832;SDS011;56075;51.264;7.150;2023-03-11T06:55:12;6.27;;;2.00;;
20832;SDS011;56075;51.264;7.150;2023-03-11T06:57:44;6.70;;;1.80;;
20832;SDS011;56075;51.264;7.150;2023-03-11T07:00:16;8.07;;;2.00;;
20832;SDS011;56075;51.264;7.150;2023-03-11T07:02:53;3.77;;;1.70;;
20832;SDS011;56075;51.264;7.150;2023-03-11T07:05:25;8.57;;;1.40;;
20832;SDS011;56075;51.264;7.150;2023-03-11T07:08:03;6.60;;;1.70;;
20832;SDS011;56075;51.264;7.150;2023-03-11T07:10:35;7.20;;;1.80;;
20832;SDS011;56075;51.264;7.150;2023-03-11T07:13:06;6.33;;;1.83;;
20832;SDS011;56075;51.264;7.150;2023-03-11T07:15:37;9.23;;;2.30;;
20832;SDS011;56075;51.264;7.150;2023-03-11T07:18:09;9.37;;;1.93;;
20832;SDS011;56075;51.264;7.150;2023-03-11T07:20:41;6.80;;;1.80;;
20832;SDS011;56075;51.264;7.150;2023-03-11T07:23:13;8.00;;;1.87;;
20832;SDS011;56075;51.264;7.150;2023-03-11T07:25:45;8.73;;;1.90;;
20832;SDS011;56075;51.264;7.150;2023-03-11T07:28:17;9.13;;;1.90;;
20832;SDS011;56075;51.264;7.150;2023-03-11T07:30:49;8.67;;;1.80;;
20832;SDS011;56075;51.264;7.150;2023-03-11T07:33:21;11.77;;;2.03;;
20832;SDS011;56075;51.264;7.150;2023-03-11T07:35:53;9.83;;;1.70;;
20832;SDS011;56075;51.264;7.150;2023-03-11T07:38:24;11.67;;;2.00;;
20832;SDS011;56075;51.264;7.150;2023-03-11T07:40:57;7.70;;;1.83;;
20832;SDS011;56075;51.264;7.150;2023-03-11T07:43:29;11.13;;;2.17;;
20832;SDS011;56075;51.264;7.150;2023-03-11T07:46:04;8.47;;;2.00;;
20832;SDS011;56075;51.264;7.150;2023-03-11T07:48:38;10.77;;;2.13;;
20832;SDS011;56075;51.264;7.150;2023-03-11T07:51:13;7.37;;;1.70;;
20832;SDS011;56075;51.264;7.150;2023-03-11T07:53:46;8.67;;;2.10;;
20832;SDS011;56075;51.264;7.150;2023-03-11T07:56:19;9.77;;;1.90;;
20832;SDS011;56075;51.264;7.150;2023-03-11T07:58:52;13.13;;;2.87;;
20832;SDS011;56075;51.264;7.150;2023-03-11T08:01:25;6.53;;;1.70;;
20832;SDS011;56075;51.264;7.150;2023-03-11T08:04:00;10.47;;;1.87;;
20832;SDS011;56075;51.264;7.150;2023-03-11T08:06:35;7.33;;;1.70;;
20832;SDS011;56075;51.264;7.150;2023-03-11T08:09:07;6.57;;;1.87;;
20832;SDS011;56075;51.264;7.150;2023-03-11T08:11:39;10.83;;;1.70;;
20832;SDS011;56075;51.264;7.150;2023-03-11T08:14:11;8.33;;;1.80;;
20832;SDS011;56075;51.264;7.150;2023-03-11T08:16:43;4.87;;;1.40;;
20832;SDS011;56075;51.264;7.150;2023-03-11T08:19:14;6.23;;;1.73;;
20832;SDS011;56075;51.264;7.150;2023-03-11T08:21:45;13.40;;;1.90;;
20832;SDS011;56075;51.264;7.150;2023-03-11T08:24:17;8.43;;;1.93;;
20832;SDS011;56075;51.264;7.150;2023-03-11T08:26:48;4.50;;;1.70;;
20832;SDS011;56075;51.264;7.150;2023-03-11T08:29:20;8.57;;;1.77;;
20832;SDS011;56075;51.264;7.150;2023-03-11T08:31:51;7.83;;;1.40;;
20832;SDS011;56075;51.264;7.150;2023-03-11T08:34:22;5.23;;;1.57;;
20832;SDS011;56075;51.264;7.150;2023-03-11T08:36:57;8.67;;;1.83;;
20832;SDS011;56075;51.264;7.150;2023-03-11T08:39:28;7.10;;;2.10;;
20832;SDS011;56075;51.264;7.150;2023-03-11T08:42:00;2.63;;;1.37;;
20832;SDS011;56075;51.264;7.150;2023-03-11T08:44:32;9.87;;;2.07;;
20832;SDS011;56075;51.264;7.150;2023-03-11T08:47:04;6.13;;;1.73;;
20832;SDS011;56075;51.264;7.150;2023-03-11T08:49:38;11.30;;;1.80;;
20832;SDS011;56075;51.264;7.150;2023-03-11T08:52:10;12.07;;;2.10;;
20832;SDS011;56075;51.264;7.150;2023-03-11T08:54:42;5.63;;;1.90;;
20832;SDS011;56075;51.264;7.150;2023-03-11T08:57:13;4.33;;;1.77;;
20832;SDS011;56075;51.264;7.150;2023-03-11T08:59:45;5.73;;;1.80;;
20832;SDS011;56075;51.264;7.150;2023-03-11T09:02:16;6.23;;;2.00;;
20832;SDS011;56075;51.264;7.150;2023-03-11T09:04:47;7.73;;;2.20;;
20832;SDS011;56075;51.264;7.150;2023-03-11T09:07:19;7.13;;;1.83;;
20832;SDS011;56075;51.264;7.150;2023-03-11T09:09:50;7.97;;;2.00;;
20832;SDS011;56075;51.264;7.150;2023-03-11T09:12:22;5.10;;;1.57;;
20832;SDS011;56075;51.264;7.150;2023-03-11T09:14:53;6.83;;;1.73;;
20832;SDS011;56075;51.264;7.150;2023-03-11T09:17:25;6.23;;;1.20;;
20832;SDS011;56075;51.264;7.150;2023-03-11T09:19:57;3.97;;;1.50;;
20832;SDS011;56075;51.264;7.150;2023-03-11T09:22:28;7.33;;;1.17;;
20832;SDS011;56075;51.264;7.150;2023-03-11T09:25:00;6.67;;;1.20;;
20832;SDS011;56075;51.264;7.150;2023-03-11T09:27:32;8.97;;;1.60;;
20832;SDS011;56075;51.264;7.150;2023-03-11T09:30:03;5.57;;;1.50;;
20832;SDS011;56075;51.264;7.150;2023-03-11T09:32:35;5.20;;;1.47;;
20832;SDS011;56075;51.264;7.150;2023-03-11T09:35:08;4.73;;;1.20;;
20832;SDS011;56075;51.264;7.150;2023-03-11T09:37:39;5.90;;;1.30;;
20832;SDS011;56075;51.264;7.150;2023-03-11T09:40:12;2.63;;;1.13;;
20832;SDS011;56075;51.264;7.150;2023-03-11T09:45:35;3.60;;;0.97;;
20832;SDS011;56075;51.264;7.150;2023-03-11T09:48:57;11.80;;;0.90;;
20832;SDS011;56075;51.264;7.150;2023-03-11T09:51:26;3.83;;;0.70;;
20832;SDS011;56075;51.264;7.150;2023-03-11T09:54:04;1.57;;;0.67;;
20832;SDS011;56075;51.264;7.150;2023-03-11T09:56:40;3.17;;;0.90;;
20832;SDS011;56075;51.264;7.150;2023-03-11T09:59:15;3.53;;;0.90;;
20832;SDS011;56075;51.264;7.150;2023-03-11T10:01:52;2.63;;;0.73;;
20832;SDS011;56075;51.264;7.150;2023-03-11T10:04:25;1.50;;;0.70;;
20832;SDS011;56075;51.264;7.150;2023-03-11T10:06:58;3.50;;;0.70;;
20832;SDS011;56075;51.264;7.150;2023-03-11T10:09:37;2.03;;;0.60;;
20832;SDS011;56075;51.264;7.150;2023-03-11T10:20:02;3.43;;;1.00;;
20832;SDS011;56075;51.264;7.150;2023-03-11T10:25:16;2.37;;;1.00;;
20832;SDS011;56075;51.264;7.150;2023-03-11T10:28:04;3.20;;;0.83;;
20832;SDS011;56075;51.264;7.150;2023-03-11T10:33:36;3.50;;;1.30;;
20832;SDS011;56075;51.264;7.150;2023-03-11T10:36:11;5.27;;;1.70;;
20832;SDS011;56075;51.264;7.150;2023-03-11T10:38:49;7.03;;;1.43;;
20832;SDS011;56075;51.264;7.150;2023-03-11T10:44:06;2.10;;;1.27;;
20832;SDS011;56075;51.264;7.150;2023-03-11T10:46:46;4.67;;;1.10;;
20832;SDS011;56075;51.264;7.150;2023-03-11T10:49:18;2.07;;;1.00;;
20832;SDS011;56075;51.264;7.150;2023-03-11T10:51:51;5.30;;;1.10;;
20832;SDS011;56075;51.264;7.150;2023-03-11T10:54:24;3.70;;;0.83;;
20832;SDS011;56075;51.264;7.150;2023-03-11T10:56:58;2.60;;;0.57;;
20832;SDS011;56075;51.264;7.150;2023-03-11T10:59:36;4.80;;;0.90;;
20832;SDS011;56075;51.264;7.150;2023-03-11T11:02:23;6.50;;;1.07;;
20832;SDS011;56075;51.264;7.150;2023-03-11T11:07:46;3.10;;;0.93;;
20832;SDS011;56075;51.264;7.150;2023-03-11T11:10:23;3.17;;;1.10;;
20832;SDS011;56075;51.264;7.150;2023-03-11T11:15:37;4.20;;;0.77;;
20832;SDS011;56075;51.264;7.150;2023-03-11T11:18:21;2.33;;;0.80;;
20832;SDS011;56075;51.264;7.150;2023-03-11T11:21:16;2.57;;;0.80;;
20832;SDS011;56075;51.264;7.150;2023-03-11T11:24:19;3.23;;;0.67;;
20832;SDS011;56075;51.264;7.150;2023-03-11T11:27:05;2.63;;;1.00;;
20832;SDS011;56075;51.264;7.150;2023-03-11T11:29:41;2.70;;;0.70;;
20832;SDS011;56075;51.264;7.150;2023-03-11T11:35:04;4.07;;;0.97;;
20832;SDS011;56075;51.264;7.150;2023-03-11T11:37:38;5.30;;;1.20;;
20832;SDS011;56075;51.264;7.150;2023-03-11T11:42:50;5.93;;;0.90;;
20832;SDS011;56075;51.264;7.150;2023-03-11T11:45:37;2.83;;;0.80;;
20832;SDS011;56075;51.264;7.150;2023-03-11T11:50:48;3.03;;;0.57;;
20832;SDS011;56075;51.264;7.150;2023-03-11T11:53:24;2.23;;;0.57;;
20832;SDS011;56075;51.264;7.150;2023-03-11T11:56:06;5.10;;;0.60;;
20832;SDS011;56075;51.264;7.150;2023-03-11T11:58:38;2.00;;;0.67;;
20832;SDS011;56075;51.264;7.150;2023-03-11T12:06:43;3.20;;;0.70;;
20832;SDS011;56075;51.264;7.150;2023-03-11T12:09:49;3.43;;;0.50;;
20832;SDS011;56075;51.264;7.150;2023-03-11T12:15:25;1.13;;;0.60;;
20832;SDS011;56075;51.264;7.150;2023-03-11T12:18:00;6.17;;;0.50;;
20832;SDS011;56075;51.264;7.150;2023-03-11T12:20:37;5.00;;;0.70;;
20832;SDS011;56075;51.264;7.150;2023-03-11T12:23:19;2.00;;;0.53;;
20832;SDS011;56075;51.264;7.150;2023-03-11T12:26:16;2.90;;;0.63;;
20832;SDS011;56075;51.264;7.150;2023-03-11T12:31:28;3.57;;;0.60;;
20832;SDS011;56075;51.264;7.150;2023-03-11T12:34:01;4.00;;;0.63;;
20832;SDS011;56075;51.264;7.150;2023-03-11T12:36:36;2.93;;;0.50;;
20832;SDS011;56075;51.264;7.150;2023-03-11T12:39:20;2.20;;;0.67;;
20832;SDS011;56075;51.264;7.150;2023-03-11T12:44:43;1.93;;;0.50;;
20832;SDS011;56075;51.264;7.150;2023-03-11T12:47:17;2.90;;;0.77;;
20832;SDS011;56075;51.264;7.150;2023-03-11T12:49:51;4.83;;;0.80;;
20832;SDS011;56075;51.264;7.150;2023-03-11T12:52:25;3.13;;;0.67;;
20832;SDS011;56075;51.264;7.150;2023-03-11T12:57:30;2.10;;;0.70;;
20832;SDS011;56075;51.264;7.150;2023-03-11T13:00:21;4.63;;;0.90;;
20832;SDS011;56075;51.264;7.150;2023-03-11T13:09:11;1.40;;;0.80;;
20832;SDS011;56075;51.264;7.150;2023-03-11T13:11:46;5.83;;;0.83;;
20832;SDS011;56075;51.264;7.150;2023-03-11T13:16:55;4.70;;;0.80;;
20832;SDS011;56075;51.264;7.150;2023-03-11T13:19:47;4.80;;;0.80;;
20832;SDS011;56075;51.264;7.150;2023-03-11T13:36:53;8.03;;;1.10;;
20832;SDS011;56075;51.264;7.150;2023-03-11T13:43:04;5.87;;;0.90;;
20832;SDS011;56075;51.264;7.150;2023-03-11T13:45:24;5.60;;;0.90;;
20832;SDS011;56075;51.264;7.150;2023-03-11T13:51:00;2.63;;;1.00;;
20832;SDS011;56075;51.264;7.150;2023-03-11T13:54:03;5.03;;;1.10;;
20832;SDS011;56075;51.264;7.150;2023-03-11T13:56:53;3.77;;;0.87;;
20832;SDS011;56075;51.264;7.150;2023-03-11T14:02:00;3.30;;;1.20;;
20832;SDS011;56075;51.264;7.150;2023-03-11T14:04:49;2.30;;;1.00;;
20832;SDS011;56075;51.264;7.150;2023-03-11T14:07:29;3.67;;;0.87;;
20832;SDS011;56075;51.264;7.150;2023-03-11T14:13:03;3.43;;;0.80;;
20832;SDS011;56075;51.264;7.150;2023-03-11T14:15:39;2.70;;;0.90;;
20832;SDS011;56075;51.264;7.150;2023-03-11T14:18:31;6.30;;;1.00;;
20832;SDS011;56075;51.264;7.150;2023-03-11T14:21:06;5.53;;;1.00;;
20832;SDS011;56075;51.264;7.150;2023-03-11T14:23:44;4.90;;;0.90;;
20832;SDS011;56075;51.264;7.150;2023-03-11T14:26:18;2.55;;;0.88;;
20832;SDS011;56075;51.264;7.150;2023-03-11T14:28:52;2.70;;;0.98;;
20832;SDS011;56075;51.264;7.150;2023-03-11T14:31:31;3.05;;;0.90;;
20832;SDS011;56075;51.264;7.150;2023-03-11T14:34:16;3.85;;;0.80;;
20832;SDS011;56075;51.264;7.150;2023-03-11T14:36:58;2.90;;;0.82;;
20832;SDS011;56075;51.264;7.150;2023-03-11T14:44:46;1.67;;;0.65;;
20832;SDS011;56075;51.264;7.150;2023-03-11T14:50:09;6.18;;;1.27;;
20832;SDS011;56075;51.264;7.150;2023-03-11T14:53:07;3.75;;;0.85;;
20832;SDS011;56075;51.264;7.150;2023-03-11T14:56:02;7.43;;;1.42;;
20832;SDS011;56075;51.264;7.150;2023-03-11T14:58:43;5.75;;;1.30;;
20832;SDS011;56075;51.264;7.150;2023-03-11T15:01:24;3.80;;;0.90;;
20832;SDS011;56075;51.264;7.150;2023-03-11T15:04:00;6.60;;;1.13;;
20832;SDS011;56075;51.264;7.150;2023-03-11T15:06:40;3.05;;;1.08;;
20832;SDS011;56075;51.264;7.150;2023-03-11T15:09:13;6.32;;;1.20;;
20832;SDS011;56075;51.264;7.150;2023-03-11T15:11:48;5.80;;;1.33;;
20832;SDS011;56075;51.264;7.150;2023-03-11T15:14:31;5.78;;;1.15;;
20832;SDS011;56075;51.264;7.150;2023-03-11T15:19:57;4.28;;;1.00;;
20832;SDS011;56075;51.264;7.150;2023-03-11T15:25:16;4.57;;;1.52;;
20832;SDS011;56075;51.264;7.150;2023-03-11T15:27:49;3.65;;;1.00;;
20832;SDS011;56075;51.264;7.150;2023-03-11T15:30:25;3.88;;;1.08;;
20832;SDS011;56075;51.264;7.150;2023-03-11T15:32:58;4.28;;;0.90;;
20832;SDS011;56075;51.264;7.150;2023-03-11T15:35:29;7.25;;;1.08;;
20832;SDS011;56075;51.264;7.150;2023-03-11T15:40:56;2.92;;;0.82;;
20832;SDS011;56075;51.264;7.150;2023-03-11T15:43:31;3.58;;;1.10;;
20832;SDS011;56075;51.264;7.150;2023-03-11T15:46:07;2.92;;;0.80;;
20832;SDS011;56075;51.264;7.150;2023-03-11T15:48:41;2.60;;;1.20;;
20832;SDS011;56075;51.264;7.150;2023-03-11T15:51:16;3.08;;;1.13;;
20832;SDS011;56075;51.264;7.150;2023-03-11T15:53:48;4.40;;;1.23;;
20832;SDS011;56075;51.264;7.150;2023-03-11T15:56:23;3.17;;;1.00;;
20832;SDS011;56075;51.264;7.150;2023-03-11T15:58:54;3.05;;;1.00;;
20832;SDS011;56075;51.264;7.150;2023-03-11T16:01:26;5.97;;;0.97;;
20832;SDS011;56075;51.264;7.150;2023-03-11T16:03:59;5.13;;;1.10;;
20832;SDS011;56075;51.264;7.150;2023-03-11T16:06:30;1.20;;;0.90;;
20832;SDS011;56075;51.264;7.150;2023-03-11T16:09:01;5.95;;;1.00;;
20832;SDS011;56075;51.264;7.150;2023-03-11T16:11:32;3.33;;;0.90;;
20832;SDS011;56075;51.264;7.150;2023-03-11T16:14:04;2.63;;;1.10;;
20832;SDS011;56075;51.264;7.150;2023-03-11T16:16:36;4.03;;;1.10;;
20832;SDS011;56075;51.264;7.150;2023-03-11T16:19:07;6.00;;;1.10;;
20832;SDS011;56075;51.264;7.150;2023-03-11T16:21:40;5.63;;;1.07;;
20832;SDS011;56075;51.264;7.150;2023-03-11T16:24:16;2.23;;;0.90;;
20832;SDS011;56075;51.264;7.150;2023-03-11T16:26:50;4.28;;;0.93;;
20832;SDS011;56075;51.264;7.150;2023-03-11T16:29:22;6.50;;;1.17;;
20832;SDS011;56075;51.264;7.150;2023-03-11T16:31:56;6.30;;;1.43;;
20832;SDS011;56075;51.264;7.150;2023-03-11T16:34:27;2.70;;;1.30;;
20832;SDS011;56075;51.264;7.150;2023-03-11T16:36:58;4.93;;;1.20;;
20832;SDS011;56075;51.264;7.150;2023-03-11T16:39:29;4.33;;;1.00;;
20832;SDS011;56075;51.264;7.150;2023-03-11T16:42:01;6.60;;;1.20;;
20832;SDS011;56075;51.264;7.150;2023-03-11T16:44:32;4.10;;;1.00;;
20832;SDS011;56075;51.264;7.150;2023-03-11T16:47:03;3.60;;;0.97;;
20832;SDS011;56075;51.264;7.150;2023-03-11T16:49:35;4.00;;;1.20;;
20832;SDS011;56075;51.264;7.150;2023-03-11T16:52:06;5.67;;;1.07;;
20832;SDS011;56075;51.264;7.150;2023-03-11T16:54:37;3.77;;;0.93;;
20832;SDS011;56075;51.264;7.150;2023-03-11T16:57:08;4.23;;;0.80;;
20832;SDS011;56075;51.264;7.150;2023-03-11T16:59:39;3.73;;;0.97;;
20832;SDS011;56075;51.264;7.150;2023-03-11T17:02:10;5.73;;;1.33;;
20832;SDS011;56075;51.264;7.150;2023-03-11T17:04:41;3.40;;;0.87;;
20832;SDS011;56075;51.264;7.150;2023-03-11T17:07:13;4.60;;;0.97;;
20832;SDS011;56075;51.264;7.150;2023-03-11T17:09:44;4.13;;;1.23;;
20832;SDS011;56075;51.264;7.150;2023-03-11T17:12:15;5.10;;;1.10;;
20832;SDS011;56075;51.264;7.150;2023-03-11T17:14:48;5.03;;;1.20;;
20832;SDS011;56075;51.264;7.150;2023-03-11T17:17:20;2.37;;;0.90;;
20832;SDS011;56075;51.264;7.150;2023-03-11T17:19:52;4.47;;;1.40;;
20832;SDS011;56075;51.264;7.150;2023-03-11T17:22:23;2.57;;;1.33;;